Time;durP1;ratioP1;P1;durP2;ratioP2;P2;SDS_P1;SDS_P2;PMS_P1;PMS_P2;Temp;Humidity;BMP_temperature;BMP_pressure;BME280_temperature;BME280_humidity;BME280_pressure;Samples;Min_cycle;Max_cycle;Signal;HPM_P1;HPM_P2
2021/03/22 00:00:47;;;;;;;23.33;5.97;;;2.80;97.30;;;;;;5064502;28;20414;-81
2021/03/22 00:03:15;;;;;;;21.03;4.97;;;2.70;97.30;;;;;;5063153;28;20486;-81
2021/03/22 00:05:40;;;;;;;15.13;4.00;;;2.70;97.30;;;;;;5063181;28;20477;-81
2021/03/22 00:08:07;;;;;;;23.73;6.40;;;2.70;97.30;;;;;;5062687;28;20418;-79
2021/03/22 00:10:35;;;;;;;30.37;5.53;;;2.70;97.30;;;;;;5062970;28;20180;-81
2021/03/22 00:13:01;;;;;;;23.87;5.37;;;2.70;97.30;;;;;;5064211;28;20421;-81
2021/03/22 00:15:30;;;;;;;23.63;4.80;;;2.70;97.30;;;;;;5062731;28;20521;-81
2021/03/22 00:17:56;;;;;;;28.07;4.80;;;2.60;97.30;;;;;;5061901;28;20175;-80
2021/03/22 00:20:22;;;;;;;24.10;5.90;;;2.60;97.30;;;;;;5062809;28;20483;-81
2021/03/22 00:22:48;;;;;;;21.23;4.50;;;2.60;97.30;;;;;;5063063;28;20462;-81
2021/03/22 00:25:14;;;;;;;17.90;5.57;;;2.60;97.30;;;;;;5062238;28;21007;-80
2021/03/22 00:27:40;;;;;;;35.80;7.90;;;2.60;97.30;;;;;;5062779;28;20551;-81
2021/03/22 00:30:08;;;;;;;20.13;4.60;;;2.60;97.30;;;;;;5061786;28;20418;-81
2021/03/22 00:32:34;;;;;;;19.07;4.80;;;2.60;97.30;;;;;;5061551;28;20556;-81
2021/03/22 00:35:00;;;;;;;38.47;5.17;;;2.60;97.30;;;;;;5061069;28;20442;-81
2021/03/22 00:37:26;;;;;;;15.37;4.90;;;2.50;97.30;;;;;;5060657;28;20195;-81
2021/03/22 00:39:51;;;;;;;20.73;5.20;;;2.50;97.30;;;;;;5061344;28;20918;-81
2021/03/22 00:42:17;;;;;;;21.87;5.37;;;2.50;97.30;;;;;;5061103;28;20211;-81
2021/03/22 00:44:42;;;;;;;29.30;5.73;;;2.50;97.30;;;;;;5058493;28;20207;-81
2021/03/22 00:47:08;;;;;;;21.60;4.80;;;2.50;97.30;;;;;;5062407;28;20522;-81
2021/03/22 00:49:35;;;;;;;20.87;5.30;;;2.40;97.30;;;;;;5060185;28;20195;-81
2021/03/22 00:52:00;;;;;;;21.33;4.07;;;2.40;97.30;;;;;;5062073;28;20262;-81
2021/03/22 00:54:26;;;;;;;24.30;4.90;;;2.40;97.30;;;;;;5060765;28;20461;-81
2021/03/22 00:56:52;;;;;;;30.93;5.57;;;2.40;97.30;;;;;;5061841;28;20180;-81
2021/03/22 00:59:18;;;;;;;32.13;7.70;;;2.40;97.30;;;;;;5064833;28;20186;-81
2021/03/22 01:01:45;;;;;;;29.23;5.07;;;2.30;97.30;;;;;;5064586;28;20180;-81
2021/03/22 01:04:10;;;;;;;32.50;5.70;;;2.30;97.30;;;;;;5064095;28;20417;-81
2021/03/22 01:06:36;;;;;;;22.40;5.57;;;2.30;97.30;;;;;;5064414;28;20414;-81
2021/03/22 01:09:03;;;;;;;24.23;6.50;;;2.30;97.30;;;;;;5064583;28;20176;-81
2021/03/22 01:11:29;;;;;;;21.37;5.63;;;2.30;97.30;;;;;;5064599;28;20413;-81
2021/03/22 01:13:57;;;;;;;26.90;5.47;;;2.30;97.30;;;;;;5066287;28;20434;-81
2021/03/22 01:16:26;;;;;;;22.03;5.10;;;2.30;97.30;;;;;;5063719;28;20226;-81
2021/03/22 01:18:54;;;;;;;20.20;4.60;;;2.30;97.30;;;;;;5063926;28;20410;-81
2021/03/22 01:21:58;;;;;;;29.10;6.47;;;2.30;97.30;;;;;;5063068;28;20471;-81
2021/03/22 01:24:26;;;;;;;32.60;5.87;;;2.30;97.30;;;;;;5061034;28;20450;-81
2021/03/22 01:26:57;;;;;;;28.90;6.27;;;2.20;97.30;;;;;;5065383;28;20444;-81
2021/03/22 01:29:26;;;;;;;21.30;5.33;;;2.20;97.30;;;;;;5064072;28;20420;-81
2021/03/22 01:31:54;;;;;;;22.13;6.30;;;2.20;97.30;;;;;;5065991;28;20413;-81
2021/03/22 01:34:20;;;;;;;27.97;5.80;;;2.20;97.30;;;;;;5063899;28;20468;-81
2021/03/22 01:36:46;;;;;;;16.67;5.17;;;2.20;97.30;;;;;;5065470;28;20406;-81
2021/03/22 01:39:17;;;;;;;23.97;6.50;;;2.20;97.30;;;;;;5066075;28;20202;-80
2021/03/22 01:42:01;;;;;;;31.73;4.70;;;2.20;97.30;;;;;;5063807;28;20497;-81
2021/03/22 01:44:39;;;;;;;20.53;7.13;;;2.20;97.30;;;;;;5065146;28;20446;-81
2021/03/22 01:47:31;;;;;;;38.87;5.83;;;2.20;97.30;;;;;;5063744;28;20416;-81
2021/03/22 01:50:09;;;;;;;25.80;4.83;;;2.20;97.30;;;;;;5059645;28;20417;-81
2021/03/22 01:52:38;;;;;;;32.83;6.87;;;2.20;97.30;;;;;;5063262;28;20410;-81
2021/03/22 01:55:07;;;;;;;14.30;4.10;;;2.20;97.30;;;;;;5062843;28;20434;-81
2021/03/22 01:57:41;;;;;;;27.03;5.47;;;2.20;97.30;;;;;;5065595;28;20407;-81
2021/03/22 02:00:14;;;;;;;21.53;5.97;;;2.20;97.30;;;;;;5063288;28;20478;-81
2021/03/22 02:02:43;;;;;;;27.47;4.80;;;2.20;97.30;;;;;;5063852;28;20458;-80
2021/03/22 02:05:12;;;;;;;36.50;4.93;;;2.30;97.30;;;;;;5062626;28;20454;-81
2021/03/22 02:07:38;;;;;;;19.17;4.37;;;2.30;97.30;;;;;;5063611;28;20827;-81
2021/03/22 02:10:07;;;;;;;30.70;4.90;;;2.30;97.30;;;;;;5062867;28;20406;-81
2021/03/22 02:12:32;;;;;;;14.67;4.37;;;2.40;97.30;;;;;;5063201;28;20419;-81
2021/03/22 02:14:58;;;;;;;22.07;4.20;;;2.40;97.30;;;;;;5063466;28;20522;-80
2021/03/22 02:17:50;;;;;;;21.53;5.30;;;2.40;97.30;;;;;;5064136;28;20175;-82
2021/03/22 02:20:46;;;;;;;25.50;5.00;;;2.40;97.30;;;;;;5062725;28;20423;-81
2021/03/22 02:23:18;;;;;;;23.97;4.33;;;2.50;97.30;;;;;;5064799;28;20480;-81
2021/03/22 02:25:46;;;;;;;31.73;5.60;;;2.50;97.30;;;;;;5063351;28;20430;-80
2021/03/22 02:28:42;;;;;;;17.43;4.93;;;2.50;97.30;;;;;;5064752;28;20418;-81
2021/03/22 02:31:35;;;;;;;22.83;5.30;;;2.60;97.30;;;;;;5064134;28;20732;-80
2021/03/22 02:34:13;;;;;;;16.87;4.50;;;2.60;97.30;;;;;;5062381;28;20464;-81
2021/03/22 02:37:02;;;;;;;31.43;5.27;;;2.70;97.30;;;;;;5063262;28;20413;-81
2021/03/22 02:39:33;;;;;;;28.30;4.77;;;2.70;97.30;;;;;;5064205;28;20391;-81
2021/03/22 02:42:03;;;;;;;27.03;4.80;;;2.70;97.30;;;;;;5062330;28;20414;-81
2021/03/22 02:44:35;;;;;;;25.53;4.77;;;2.70;97.30;;;;;;5064435;28;20431;-81
2021/03/22 02:47:02;;;;;;;29.17;4.53;;;2.70;97.30;;;;;;5061963;28;20418;-81
2021/03/22 02:49:33;;;;;;;25.07;5.40;;;2.70;97.30;;;;;;5061899;28;20419;-81
2021/03/22 02:52:08;;;;;;;12.27;4.70;;;2.80;97.30;;;;;;5062010;28;20407;-81
2021/03/22 02:54:56;;;;;;;20.80;4.23;;;2.80;97.30;;;;;;5061067;28;20433;-81
2021/03/22 02:57:43;;;;;;;29.73;5.40;;;2.80;97.30;;;;;;5061213;28;20437;-81
2021/03/22 03:00:16;;;;;;;15.07;5.00;;;2.80;97.30;;;;;;5060674;28;20770;-81
2021/03/22 03:02:43;;;;;;;25.40;5.83;;;2.80;97.30;;;;;;5061031;28;20458;-81
2021/03/22 03:05:14;;;;;;;21.00;4.23;;;2.80;97.30;;;;;;5060309;28;20422;-81
2021/03/22 03:07:40;;;;;;;24.07;5.93;;;2.80;97.30;;;;;;5060720;28;20410;-81
2021/03/22 03:10:08;;;;;;;28.57;6.40;;;2.80;97.30;;;;;;5061601;28;20402;-81
2021/03/22 03:12:34;;;;;;;26.83;4.63;;;2.80;97.30;;;;;;5060449;28;20414;-81
2021/03/22 03:15:00;;;;;;;20.60;5.00;;;2.80;97.30;;;;;;5060348;28;20929;-81
2021/03/22 03:17:26;;;;;;;21.03;5.30;;;2.90;97.30;;;;;;5060914;28;20168;-81
2021/03/22 03:19:53;;;;;;;18.23;4.10;;;2.90;97.30;;;;;;5059619;28;20559;-81
2021/03/22 03:22:20;;;;;;;18.53;4.03;;;2.90;97.30;;;;;;5061072;28;20458;-81
2021/03/22 03:24:46;;;;;;;32.23;6.20;;;3.00;97.30;;;;;;5060052;28;20431;-81
2021/03/22 03:27:13;;;;;;;28.53;5.43;;;3.00;97.30;;;;;;5059720;28;20429;-81
2021/03/22 03:29:40;;;;;;;22.47;5.93;;;3.00;97.30;;;;;;5060021;28;20189;-81
2021/03/22 03:32:08;;;;;;;26.97;5.70;;;3.10;97.30;;;;;;5059083;28;20831;-81
2021/03/22 03:34:34;;;;;;;27.83;4.50;;;3.10;97.30;;;;;;5058937;28;20446;-81
2021/03/22 03:37:01;;;;;;;29.07;5.80;;;3.10;97.30;;;;;;5059979;28;20450;-81
2021/03/22 03:39:27;;;;;;;22.53;5.37;;;3.10;97.30;;;;;;5059211;28;20449;-81
2021/03/22 03:41:53;;;;;;;16.07;5.20;;;3.10;97.30;;;;;;5059067;28;20426;-81
2021/03/22 03:44:18;;;;;;;22.67;4.67;;;3.20;97.30;;;;;;5061716;28;20168;-81
2021/03/22 03:46:44;;;;;;;23.83;6.90;;;3.20;97.30;;;;;;5058959;28;20227;-81
2021/03/22 03:49:10;;;;;;;13.70;4.80;;;3.20;97.30;;;;;;5060930;28;20703;-81
2021/03/22 03:51:36;;;;;;;21.83;5.47;;;3.20;97.30;;;;;;5060099;28;20164;-81
2021/03/22 03:54:04;;;;;;;22.37;6.30;;;3.20;97.30;;;;;;5061255;28;20589;-81
2021/03/22 03:56:30;;;;;;;15.67;4.30;;;3.30;97.30;;;;;;5060944;28;20425;-81
2021/03/22 03:58:56;;;;;;;19.83;4.70;;;3.30;97.30;;;;;;5061628;28;20410;-82
2021/03/22 04:01:24;;;;;;;17.83;5.50;;;3.30;97.30;;;;;;5061995;28;20472;-81
2021/03/22 04:03:49;;;;;;;19.73;5.20;;;3.30;97.30;;;;;;5060240;28;20474;-81
2021/03/22 04:06:21;;;;;;;23.43;5.30;;;3.30;97.30;;;;;;5062075;28;20423;-81
2021/03/22 04:08:49;;;;;;;20.27;5.40;;;3.30;97.30;;;;;;5059592;28;20259;-81
2021/03/22 04:11:18;;;;;;;28.47;4.40;;;3.30;97.30;;;;;;5060363;28;20414;-81
2021/03/22 04:13:44;;;;;;;20.27;5.73;;;3.30;97.30;;;;;;5061143;28;20414;-81
2021/03/22 04:16:12;;;;;;;23.37;5.70;;;3.30;97.30;;;;;;5059777;28;20436;-80
2021/03/22 04:18:39;;;;;;;16.83;5.23;;;3.30;97.30;;;;;;5060690;28;20203;-81
2021/03/22 04:21:06;;;;;;;24.80;5.10;;;3.30;97.30;;;;;;5060335;28;20422;-81
2021/03/22 04:23:33;;;;;;;25.87;5.80;;;3.40;97.30;;;;;;5061162;28;20452;-81
2021/03/22 04:26:00;;;;;;;26.07;5.10;;;3.40;97.30;;;;;;5060463;28;20523;-81
2021/03/22 04:28:27;;;;;;;21.17;5.43;;;3.40;97.30;;;;;;5060241;28;20966;-81
2021/03/22 04:30:53;;;;;;;21.23;4.70;;;3.40;97.30;;;;;;5060144;28;20831;-81
2021/03/22 04:33:18;;;;;;;22.23;6.83;;;3.40;97.30;;;;;;5059711;28;20422;-81
2021/03/22 04:35:44;;;;;;;34.97;5.47;;;3.40;97.30;;;;;;5060565;28;20195;-81
2021/03/22 04:38:09;;;;;;;28.80;6.10;;;3.40;97.30;;;;;;5059771;28;20175;-81
2021/03/22 04:40:35;;;;;;;23.40;5.93;;;3.40;97.30;;;;;;5060122;28;20175;-81
2021/03/22 04:43:01;;;;;;;23.30;5.50;;;3.40;97.30;;;;;;5060066;28;20694;-80
2021/03/22 04:45:29;;;;;;;16.33;5.47;;;3.40;97.30;;;;;;5070721;23;20733;-92
2021/03/22 04:47:55;;;;;;;33.03;6.03;;;3.40;97.30;;;;;;5052363;28;20239;-91
2021/03/22 04:50:23;;;;;;;25.23;5.03;;;3.40;97.30;;;;;;5057124;28;20415;-92
2021/03/22 04:52:48;;;;;;;28.07;6.17;;;3.40;97.30;;;;;;5057073;28;20448;-91
2021/03/22 04:55:16;;;;;;;23.97;4.83;;;3.40;97.30;;;;;;5056845;28;20438;-92
2021/03/22 04:57:41;;;;;;;19.30;5.20;;;3.40;97.30;;;;;;5056345;28;20179;-91
2021/03/22 05:00:10;;;;;;;26.43;5.63;;;3.40;97.30;;;;;;5056381;28;20482;-91
2021/03/22 05:02:36;;;;;;;19.53;5.30;;;3.40;97.30;;;;;;5055699;28;20298;-91
2021/03/22 05:05:04;;;;;;;27.23;7.60;;;3.40;97.30;;;;;;5055129;28;20956;-92
2021/03/22 05:07:29;;;;;;;26.80;5.90;;;3.40;97.30;;;;;;5056226;28;20207;-91
2021/03/22 05:09:55;;;;;;;26.77;5.80;;;3.40;97.30;;;;;;5057263;28;20483;-91
2021/03/22 05:12:20;;;;;;;33.97;5.80;;;3.40;97.30;;;;;;5057589;28;20172;-92
2021/03/22 05:14:46;;;;;;;21.90;5.27;;;3.40;97.30;;;;;;5060892;28;20206;-90
2021/03/22 05:17:12;;;;;;;39.67;6.30;;;3.40;97.30;;;;;;5056737;28;20210;-92
2021/03/22 05:19:37;;;;;;;29.27;6.43;;;3.40;97.30;;;;;;5055535;28;20176;-92
2021/03/22 05:22:04;;;;;;;30.53;6.23;;;3.40;97.30;;;;;;5054082;28;20176;-92
2021/03/22 05:24:30;;;;;;;21.40;5.93;;;3.40;97.30;;;;;;5054748;28;20183;-92
2021/03/22 05:26:56;;;;;;;24.80;5.70;;;3.40;97.30;;;;;;5054560;28;20430;-92
2021/03/22 05:29:24;;;;;;;32.10;5.73;;;3.40;97.30;;;;;;5055043;28;20209;-92
2021/03/22 05:31:50;;;;;;;17.93;5.67;;;3.40;97.30;;;;;;5054333;28;20422;-92
2021/03/22 05:34:17;;;;;;;25.43;5.90;;;3.40;97.30;;;;;;5054212;28;20415;-92
2021/03/22 05:36:42;;;;;;;37.60;8.17;;;3.40;97.30;;;;;;5054003;28;20514;-92
2021/03/22 05:39:08;;;;;;;21.23;5.40;;;3.40;97.30;;;;;;5054472;28;20464;-92
2021/03/22 05:42:17;;;;;;;21.73;5.90;;;3.40;97.30;;;;;;5054045;28;20222;-92
2021/03/22 05:44:58;;;;;;;29.70;6.70;;;3.40;97.30;;;;;;5052373;28;20418;-92
2021/03/22 05:47:35;;;;;;;33.97;6.53;;;3.40;97.30;;;;;;5040671;28;20421;-92
2021/03/22 05:50:38;;;;;;;43.63;8.83;;;3.40;97.30;;;;;;5039875;28;20955;-92
2021/03/22 05:53:27;;;;;;;22.13;5.47;;;3.40;97.30;;;;;;5025132;28;20946;-91
2021/03/22 05:55:54;;;;;;;19.63;6.00;;;3.40;97.30;;;;;;5040144;28;20426;-91
2021/03/22 05:58:49;;;;;;;22.33;6.67;;;3.40;97.30;;;;;;5039760;28;20468;-91
2021/03/22 06:01:37;;;;;;;27.37;5.70;;;3.50;97.30;;;;;;5038667;28;20406;-92
2021/03/22 06:04:15;;;;;;;35.17;6.17;;;3.50;97.30;;;;;;5026665;28;21012;-91
2021/03/22 06:06:48;;;;;;;29.23;6.10;;;3.50;97.30;;;;;;5039584;28;20434;-92
2021/03/22 06:09:38;;;;;;;53.87;8.50;;;3.50;97.30;;;;;;5038822;28;20418;-92
2021/03/22 06:12:38;;;;;;;29.17;6.60;;;3.50;97.30;;;;;;5039402;28;20415;-92
2021/03/22 06:18:57;;;;;;;21.40;4.80;;;3.50;97.30;;;;;;5055764;28;20409;-92
2021/03/22 06:21:25;;;;;;;33.20;6.10;;;3.50;97.30;;;;;;5036887;28;20472;-91
2021/03/22 06:23:51;;;;;;;17.20;5.90;;;3.50;97.30;;;;;;5037125;28;20462;-91
2021/03/22 06:26:41;;;;;;;24.30;5.17;;;3.50;97.30;;;;;;5037729;28;20456;-91
2021/03/22 06:29:31;;;;;;;28.53;6.30;;;3.50;97.30;;;;;;5037923;28;20168;-92
2021/03/22 06:32:26;;;;;;;19.53;5.93;;;3.50;97.30;;;;;;5038026;28;20414;-91
2021/03/22 06:35:00;;;;;;;26.60;6.03;;;3.50;97.30;;;;;;5037104;28;20915;-93
2021/03/22 06:37:32;;;;;;;38.03;5.93;;;3.50;97.30;;;;;;5038968;28;20927;-91
2021/03/22 06:40:09;;;;;;;30.23;6.63;;;3.50;97.30;;;;;;5036938;28;20410;-92
2021/03/22 06:42:35;;;;;;;23.83;6.27;;;3.50;97.30;;;;;;5037840;28;20563;-92
2021/03/22 06:45:00;;;;;;;29.57;6.00;;;3.50;97.30;;;;;;5036814;28;20966;-92
2021/03/22 06:47:34;;;;;;;23.77;5.83;;;3.50;97.30;;;;;;5042352;28;20814;-92
2021/03/22 06:50:22;;;;;;;20.60;5.10;;;3.50;97.30;;;;;;5034311;28;20260;-92
2021/03/22 06:52:49;;;;;;;28.43;5.80;;;3.50;97.30;;;;;;5033676;28;20427;-90
2021/03/22 06:55:38;;;;;;;19.63;6.00;;;3.50;97.30;;;;;;5033110;28;20531;-92
2021/03/22 06:58:05;;;;;;;23.13;5.73;;;3.60;97.30;;;;;;5034363;28;20834;-91
2021/03/22 07:00:35;;;;;;;20.03;5.40;;;3.60;97.30;;;;;;5033694;28;20423;-92
2021/03/22 07:03:19;;;;;;;28.63;6.30;;;3.60;97.30;;;;;;5034654;28;20455;-93
2021/03/22 07:05:44;;;;;;;22.77;7.90;;;3.60;97.30;;;;;;5039959;28;20431;-91
2021/03/22 07:08:13;;;;;;;48.13;7.03;;;3.60;97.30;;;;;;5035815;28;20437;-91
2021/03/22 07:10:51;;;;;;;20.33;6.17;;;3.60;97.30;;;;;;5035277;28;20592;-92
2021/03/22 07:13:22;;;;;;;27.87;6.27;;;3.60;97.30;;;;;;5036066;28;20461;-92
2021/03/22 07:15:50;;;;;;;32.33;6.03;;;3.60;97.30;;;;;;5035756;28;20431;-92
2021/03/22 07:18:25;;;;;;;27.07;5.80;;;3.60;97.30;;;;;;5035231;28;20788;-93
2021/03/22 07:21:00;;;;;;;31.13;7.20;;;3.60;97.30;;;;;;5041253;28;20418;-93
2021/03/22 07:23:26;;;;;;;34.63;6.83;;;3.70;97.30;;;;;;5040608;28;20553;-92
2021/03/22 07:26:00;;;;;;;20.17;6.10;;;3.70;97.30;;;;;;5037129;28;20525;-93
2021/03/22 07:28:30;;;;;;;24.43;5.53;;;3.80;97.30;;;;;;5036146;28;20416;-93
2021/03/22 07:31:21;;;;;;;23.23;5.90;;;3.80;97.30;;;;;;5036372;28;20433;-92
2021/03/22 07:34:16;;;;;;;17.70;5.43;;;3.90;97.30;;;;;;5037547;28;20411;-92
2021/03/22 07:36:47;;;;;;;33.43;6.60;;;3.90;97.30;;;;;;5035304;28;20450;-92
2021/03/22 07:39:31;;;;;;;19.13;6.27;;;3.90;97.30;;;;;;5035089;28;20461;-92
2021/03/22 07:42:01;;;;;;;19.00;6.50;;;4.00;97.30;;;;;;5035559;28;20569;-93
2021/03/22 07:44:52;;;;;;;24.97;6.87;;;4.10;97.30;;;;;;5035457;28;20430;-92
2021/03/22 07:47:42;;;;;;;21.00;7.13;;;4.20;97.30;;;;;;5024607;28;20472;-91
2021/03/22 07:50:21;;;;;;;27.17;6.10;;;4.20;97.30;;;;;;5016284;28;20519;-93
2021/03/22 07:53:02;;;;;;;31.10;8.53;;;4.20;97.30;;;;;;5015742;28;20439;-93
2021/03/22 07:55:40;;;;;;;28.70;7.40;;;4.20;97.30;;;;;;5015665;28;20525;-92
2021/03/22 07:58:33;;;;;;;30.30;6.60;;;4.20;97.30;;;;;;5016229;28;20416;-93
2021/03/22 08:01:28;;;;;;;35.77;7.80;;;4.20;97.30;;;;;;5015779;28;20420;-93
2021/03/22 08:03:57;;;;;;;29.87;9.17;;;4.20;97.30;;;;;;5014589;28;20979;-92
2021/03/22 08:06:41;;;;;;;39.07;8.73;;;4.20;97.30;;;;;;5013719;28;20441;-92
2021/03/22 08:09:06;;;;;;;30.53;6.40;;;4.30;97.30;;;;;;5013881;28;20547;-93
2021/03/22 08:11:51;;;;;;;30.30;7.67;;;4.30;97.30;;;;;;5013909;28;20439;-93
2021/03/22 08:14:29;;;;;;;25.73;7.80;;;4.30;97.30;;;;;;5014779;28;20250;-93
2021/03/22 08:17:01;;;;;;;30.00;8.97;;;4.30;97.30;;;;;;5013677;28;20967;-93
2021/03/22 08:19:43;;;;;;;23.80;9.93;;;4.40;97.30;;;;;;5013750;28;20420;-93
2021/03/22 08:22:20;;;;;;;33.47;10.03;;;4.40;97.30;;;;;;5014997;28;20428;-93
2021/03/22 08:25:04;;;;;;;32.10;10.30;;;4.40;97.30;;;;;;5013064;28;20408;-92
2021/03/22 08:27:34;;;;;;;27.10;10.23;;;4.50;97.30;;;;;;5013476;28;20507;-93
2021/03/22 08:30:10;;;;;;;44.77;11.53;;;4.50;97.30;;;;;;5013344;28;20512;-92
2021/03/22 08:32:56;;;;;;;29.20;12.33;;;4.60;97.30;;;;;;5015931;28;20399;-92
2021/03/22 08:36:12;;;;;;;45.83;13.03;;;4.70;97.30;;;;;;5015123;28;20490;-90
2021/03/22 08:38:50;;;;;;;36.87;11.40;;;4.80;97.30;;;;;;4988518;28;20795;-92
2021/03/22 08:41:59;;;;;;;32.17;10.93;;;4.90;97.30;;;;;;5013653;28;20503;-91
2021/03/22 08:44:32;;;;;;;26.30;10.43;;;5.00;97.30;;;;;;4994586;28;20438;-92
2021/03/22 08:47:17;;;;;;;34.87;9.40;;;5.00;97.30;;;;;;5013417;28;20480;-92
2021/03/22 08:49:49;;;;;;;29.57;9.40;;;5.10;97.30;;;;;;5012966;28;20412;-92
2021/03/22 08:52:31;;;;;;;25.90;9.67;;;5.10;97.30;;;;;;5016258;28;20518;-94
2021/03/22 08:55:12;;;;;;;27.17;9.50;;;5.10;97.30;;;;;;5026836;28;20438;-92
2021/03/22 08:57:56;;;;;;;32.20;9.10;;;5.10;97.30;;;;;;5014828;28;20420;-92
2021/03/22 09:00:25;;;;;;;20.47;8.40;;;5.10;97.30;;;;;;5013897;28;20424;-90
2021/03/22 09:02:57;;;;;;;23.37;8.17;;;5.20;97.30;;;;;;5012900;28;20748;-93
2021/03/22 09:05:25;;;;;;;30.00;9.23;;;5.20;97.30;;;;;;5011779;28;20424;-93
2021/03/22 09:07:51;;;;;;;24.53;8.57;;;5.30;97.30;;;;;;5012962;28;20408;-92
2021/03/22 09:10:26;;;;;;;25.70;8.63;;;5.40;97.30;;;;;;5013839;28;20449;-92
2021/03/22 09:13:03;;;;;;;29.47;9.37;;;5.30;97.30;;;;;;5011078;28;20657;-91
2021/03/22 09:15:29;;;;;;;24.40;9.60;;;5.20;97.30;;;;;;5013318;28;20485;-92
2021/03/22 09:18:01;;;;;;;30.57;8.67;;;5.40;97.30;;;;;;5014241;28;20416;-92
2021/03/22 09:20:33;;;;;;;37.97;9.07;;;5.50;97.30;;;;;;5015700;28;20622;-92
2021/03/22 09:23:04;;;;;;;22.93;8.10;;;5.60;97.30;;;;;;5015401;28;20897;-91
2021/03/22 09:25:55;;;;;;;19.57;7.87;;;5.70;97.30;;;;;;5015120;28;20517;-91
2021/03/22 09:28:24;;;;;;;28.20;8.83;;;5.90;97.30;;;;;;5015398;28;20427;-91
2021/03/22 09:31:11;;;;;;;31.97;9.00;;;6.10;97.30;;;;;;5014889;28;20905;-93
2021/03/22 09:34:24;;;;;;;18.67;7.63;;;6.00;97.30;;;;;;5017545;28;20507;-91
2021/03/22 09:36:50;;;;;;;28.87;9.10;;;6.00;97.30;;;;;;5015361;28;20448;-93
2021/03/22 09:39:19;;;;;;;30.20;8.57;;;6.10;97.30;;;;;;5019822;28;20513;-90
2021/03/22 09:42:09;;;;;;;30.63;8.90;;;6.40;97.30;;;;;;5032838;28;20458;-92
2021/03/22 09:44:55;;;;;;;42.57;9.57;;;6.30;97.30;;;;;;5035817;28;20427;-91
2021/03/22 09:47:22;;;;;;;32.47;8.37;;;6.30;97.30;;;;;;5024932;28;20470;-92
2021/03/22 09:50:19;;;;;;;36.43;10.13;;;6.50;97.30;;;;;;5036646;28;20443;-91
2021/03/22 09:52:53;;;;;;;19.87;7.40;;;6.70;97.30;;;;;;5033079;28;20411;-90
2021/03/22 09:55:25;;;;;;;24.23;8.10;;;6.70;97.30;;;;;;5035832;28;21005;-91
2021/03/22 09:57:52;;;;;;;21.10;7.60;;;6.90;97.30;;;;;;5034428;28;20415;-91
2021/03/22 10:00:35;;;;;;;26.77;8.47;;;7.10;97.30;;;;;;5034450;28;20415;-91
2021/03/22 10:03:26;;;;;;;23.47;7.53;;;7.40;97.30;;;;;;5034925;28;20558;-91
2021/03/22 10:05:52;;;;;;;30.70;7.93;;;7.40;97.30;;;;;;5035375;28;20446;-92
2021/03/22 10:08:39;;;;;;;32.20;8.20;;;7.30;97.30;;;;;;5036027;28;20415;-91
2021/03/22 10:11:21;;;;;;;20.70;7.70;;;7.30;97.30;;;;;;5035722;28;20626;-91
2021/03/22 10:13:49;;;;;;;36.70;8.67;;;7.20;97.30;;;;;;5036323;28;20415;-91
2021/03/22 10:16:22;;;;;;;29.67;7.57;;;7.20;97.30;;;;;;5036386;28;20427;-90
2021/03/22 10:18:58;;;;;;;36.00;8.17;;;7.30;97.30;;;;;;5037543;28;20427;-92
2021/03/22 10:21:28;;;;;;;20.93;7.67;;;7.20;97.30;;;;;;5036300;28;20549;-92
2021/03/22 10:24:04;;;;;;;26.40;7.80;;;7.10;97.30;;;;;;5037135;28;20463;-92
2021/03/22 10:26:41;;;;;;;32.63;8.43;;;7.10;97.30;;;;;;5042419;28;20435;-93
2021/03/22 10:29:10;;;;;;;27.53;7.80;;;7.10;97.30;;;;;;5036023;28;20422;-92
2021/03/22 10:31:36;;;;;;;26.60;7.80;;;7.00;97.30;;;;;;5036245;28;20418;-93
2021/03/22 10:34:02;;;;;;;30.43;8.30;;;7.00;97.30;;;;;;5036973;28;20423;-92
2021/03/22 10:36:35;;;;;;;23.60;7.37;;;7.40;97.30;;;;;;5036990;28;20443;-92
2021/03/22 10:39:03;;;;;;;25.90;7.30;;;7.60;96.50;;;;;;5037631;28;20801;-90
2021/03/22 10:41:36;;;;;;;32.57;8.80;;;7.60;96.40;;;;;;5037228;28;20411;-93
2021/03/22 10:44:30;;;;;;;37.13;9.47;;;7.60;96.90;;;;;;5039414;28;20493;-93
2021/03/22 10:47:19;;;;;;;23.20;7.97;;;7.50;97.30;;;;;;5050493;23;21161;-81
2021/03/22 10:49:45;;;;;;;31.53;7.63;;;7.40;97.30;;;;;;5037736;28;20430;-82
2021/03/22 10:52:26;;;;;;;20.20;7.50;;;7.50;97.30;;;;;;5036520;28;20829;-81
2021/03/22 10:54:52;;;;;;;22.00;7.47;;;7.50;97.30;;;;;;5037722;28;20419;-81
2021/03/22 10:57:35;;;;;;;20.87;8.10;;;7.80;97.30;;;;;;5020460;28;20765;-82
2021/03/22 11:00:21;;;;;;;26.80;7.57;;;7.90;96.50;;;;;;5018528;28;20400;-81
2021/03/22 11:02:50;;;;;;;25.63;7.80;;;8.10;96.20;;;;;;5004335;28;21003;-82
2021/03/22 11:05:19;;;;;;;19.23;8.00;;;8.00;94.70;;;;;;5017999;28;20416;-80
2021/03/22 11:07:56;;;;;;;16.70;6.90;;;7.80;95.10;;;;;;5017694;28;20864;-81
2021/03/22 11:10:23;;;;;;;16.60;7.90;;;7.80;96.10;;;;;;5017628;28;20796;-80
2021/03/22 11:12:51;;;;;;;28.43;7.57;;;8.10;95.70;;;;;;5016538;28;20412;-80
2021/03/22 11:15:38;;;;;;;25.60;8.57;;;8.50;94.70;;;;;;5016942;28;20847;-81
2021/03/22 11:18:11;;;;;;;22.23;7.97;;;9.00;93.30;;;;;;5016617;28;20948;-81
2021/03/22 11:20:51;;;;;;;18.30;7.20;;;9.40;92.10;;;;;;5018262;28;20417;-81
2021/03/22 11:23:27;;;;;;;26.57;7.47;;;9.60;90.80;;;;;;5017575;28;20495;-80
2021/03/22 11:26:11;;;;;;;25.77;8.27;;;9.50;90.10;;;;;;5017973;28;20967;-81
2021/03/22 11:28:36;;;;;;;21.33;7.27;;;9.50;89.30;;;;;;5018562;28;20476;-81
2021/03/22 11:31:11;;;;;;;19.97;7.50;;;9.50;90.10;;;;;;5016954;28;20470;-81
2021/03/22 11:33:40;;;;;;;28.60;7.50;;;9.80;91.50;;;;;;5018174;28;20181;-82
2021/03/22 11:36:14;;;;;;;18.20;9.07;;;9.80;89.00;;;;;;5017160;28;20463;-81
2021/03/22 11:38:56;;;;;;;23.13;8.50;;;9.80;89.50;;;;;;5017721;28;20421;-80
2021/03/22 11:41:43;;;;;;;27.33;7.40;;;9.80;90.10;;;;;;5016985;28;20428;-81
2021/03/22 11:44:32;;;;;;;19.10;7.63;;;9.70;89.10;;;;;;5018338;28;20506;-80
2021/03/22 11:47:35;;;;;;;21.07;6.83;;;9.10;90.00;;;;;;5017410;28;20474;-81
2021/03/22 11:50:21;;;;;;;30.80;7.73;;;8.90;89.80;;;;;;5016248;28;20515;-79
2021/03/22 11:52:58;;;;;;;17.60;6.07;;;9.30;89.40;;;;;;5012116;28;20412;-79
2021/03/22 11:55:32;;;;;;;22.50;5.90;;;9.80;88.40;;;;;;5013473;28;20408;-79
2021/03/22 11:57:57;;;;;;;18.87;6.70;;;9.80;88.00;;;;;;5014245;28;20951;-80
2021/03/22 12:00:34;;;;;;;18.07;7.00;;;9.70;87.50;;;;;;5013981;28;20420;-80
2021/03/22 12:03:08;;;;;;;15.80;5.70;;;9.90;87.60;;;;;;5013897;28;20220;-80
2021/03/22 12:05:41;;;;;;;21.30;6.40;;;10.00;86.50;;;;;;5015870;28;20816;-80
2021/03/22 12:08:33;;;;;;;19.60;6.27;;;10.10;85.50;;;;;;5017325;28;20435;-80
2021/03/22 12:11:00;;;;;;;22.60;6.90;;;10.20;85.60;;;;;;5017568;28;20507;-81
2021/03/22 12:13:26;;;;;;;18.43;6.77;;;10.30;85.80;;;;;;5017845;28;20423;-81
2021/03/22 12:15:52;;;;;;;18.60;5.93;;;10.60;86.10;;;;;;5017199;28;20478;-81
2021/03/22 12:18:33;;;;;;;18.03;5.90;;;10.90;85.10;;;;;;5018191;28;20680;-80
2021/03/22 12:21:00;;;;;;;13.73;6.37;;;10.60;83.90;;;;;;5018115;28;20450;-82
2021/03/22 12:23:26;;;;;;;21.73;6.20;;;10.10;84.80;;;;;;5018502;28;20487;-81
2021/03/22 12:25:52;;;;;;;27.40;5.83;;;10.00;85.20;;;;;;5013819;28;20455;-81
2021/03/22 12:28:18;;;;;;;17.30;6.10;;;10.20;84.90;;;;;;5013770;28;20428;-80
2021/03/22 12:30:44;;;;;;;12.40;4.70;;;10.50;84.70;;;;;;5012416;28;20182;-81
2021/03/22 12:33:29;;;;;;;12.67;6.30;;;10.60;83.90;;;;;;5017221;28;20826;-81
2021/03/22 12:35:58;;;;;;;18.60;5.60;;;10.30;83.90;;;;;;5016780;28;20209;-81
2021/03/22 12:38:24;;;;;;;15.50;5.17;;;10.30;84.90;;;;;;5017287;28;20519;-81
2021/03/22 12:40:51;;;;;;;17.07;5.53;;;10.20;83.70;;;;;;5017232;28;20432;-82
2021/03/22 12:43:27;;;;;;;19.00;4.93;;;10.20;85.10;;;;;;5016537;28;20546;-81
2021/03/22 12:45:53;;;;;;;14.20;5.50;;;10.40;84.60;;;;;;5018084;28;20486;-82
2021/03/22 12:48:18;;;;;;;10.00;4.50;;;10.80;83.20;;;;;;5010266;28;20424;-80
2021/03/22 12:50:48;;;;;;;13.50;4.90;;;11.30;82.00;;;;;;5019494;28;20177;-81
2021/03/22 12:53:14;;;;;;;19.40;5.37;;;11.50;80.00;;;;;;5022482;28;20188;-81
2021/03/22 12:55:40;;;;;;;22.60;5.80;;;11.60;78.60;;;;;;5024486;28;20448;-81
2021/03/22 12:58:23;;;;;;;14.93;4.83;;;11.20;79.50;;;;;;5024803;28;20408;-81
2021/03/22 13:00:51;;;;;;;9.20;4.07;;;10.70;80.60;;;;;;5024936;28;20427;-82
2021/03/22 13:03:23;;;;;;;16.30;4.67;;;10.30;82.00;;;;;;5022917;28;20467;-85
2021/03/22 13:05:53;;;;;;;20.07;4.70;;;10.00;81.90;;;;;;5018815;28;20432;-84
2021/03/22 13:08:19;;;;;;;16.70;4.80;;;9.70;81.90;;;;;;5025864;28;20412;-81
2021/03/22 13:10:45;;;;;;;21.37;4.60;;;9.50;83.10;;;;;;5018764;28;20956;-81
2021/03/22 13:13:10;;;;;;;19.43;5.10;;;9.40;83.20;;;;;;5014849;28;20420;-82
2021/03/22 13:15:42;;;;;;;16.87;4.70;;;9.20;84.50;;;;;;5015326;28;20268;-82
2021/03/22 13:18:10;;;;;;;13.33;5.73;;;9.10;85.50;;;;;;5014723;28;20181;-81
2021/03/22 13:20:36;;;;;;;19.20;5.57;;;9.00;86.50;;;;;;5014848;28;20435;-81